createdAt,value
2022-12-18T12:43:18.441Z,43.92
2022-12-18T12:46:01.522Z,44.20
2022-12-18T12:48:53.742Z,44.35
2022-12-18T12:51:33.531Z,44.23
2022-12-18T12:54:06.964Z,43.99
2022-12-18T12:56:45.884Z,43.78
2022-12-18T12:59:35.691Z,43.58
2022-12-18T13:02:25.641Z,43.41
2022-12-18T13:05:08.044Z,43.21
2022-12-18T13:07:41.622Z,43.13
2022-12-18T13:10:22.233Z,43.00
2022-12-18T13:13:02.219Z,42.94
2022-12-18T13:15:41.857Z,42.92
2022-12-18T13:18:15.604Z,42.87
2022-12-18T13:20:56.304Z,42.83
2022-12-18T13:23:30.441Z,43.09
2022-12-18T13:26:01.727Z,41.66
2022-12-18T13:28:53.601Z,41.01
2022-12-18T13:31:45.278Z,42.33
2022-12-18T13:34:27.713Z,43.04
2022-12-18T13:37:00.526Z,43.18
2022-12-18T13:39:36.753Z,43.25
2022-12-18T13:42:10.439Z,43.22
2022-12-18T13:44:42.449Z,43.22
2022-12-18T13:47:36.458Z,43.21
2022-12-18T13:50:18.654Z,43.25
2022-12-18T13:52:50.291Z,43.22
2022-12-18T13:55:22.774Z,43.28
2022-12-18T13:57:55.867Z,43.28
2022-12-18T14:00:31.837Z,43.28
2022-12-18T14:03:03.067Z,43.26
2022-12-18T14:05:43.365Z,43.26
2022-12-18T14:08:18.187Z,43.30
2022-12-18T14:10:50.491Z,43.30
2022-12-18T14:13:32.972Z,43.28
2022-12-18T14:16:06.061Z,43.35
2022-12-18T14:18:48.212Z,43.36
2022-12-18T14:21:27.008Z,43.40
2022-12-18T14:24:11.943Z,43.45
2022-12-18T14:26:42.402Z,43.39
2022-12-18T14:29:24.759Z,43.43
2022-12-18T14:32:18.326Z,43.41
2022-12-18T14:34:58.085Z,43.43
2022-12-18T14:37:29.266Z,43.39
2022-12-18T14:40:10.606Z,43.42
2022-12-18T14:42:35.860Z,43.41
2022-12-18T14:45:43.858Z,43.34
2022-12-18T14:48:24.330Z,43.39
2022-12-18T14:51:00.652Z,43.39
2022-12-18T14:53:56.618Z,43.47
2022-12-18T14:56:30.226Z,43.47
2022-12-18T14:59:22.332Z,43.45
2022-12-18T15:01:52.994Z,43.46
2022-12-18T15:04:36.311Z,43.37
2022-12-18T15:07:23.411Z,43.28
2022-12-18T15:10:12.402Z,43.28
2022-12-18T15:12:45.337Z,43.54
2022-12-18T15:15:38.319Z,43.43
2022-12-18T15:18:14.243Z,43.43
2022-12-18T15:21:00.156Z,43.57
2022-12-18T15:23:33.584Z,43.76
2022-12-18T15:26:10.015Z,43.86
2022-12-18T15:28:43.739Z,43.97
2022-12-18T15:31:19.822Z,43.93
2022-12-18T15:33:55.691Z,44.00
2022-12-18T15:36:31.867Z,44.00
2022-12-18T15:39:05.107Z,43.91
2022-12-18T15:42:08.113Z,43.83
2022-12-18T15:44:38.758Z,43.83
2022-12-18T15:47:12.112Z,43.88
2022-12-18T15:49:42.408Z,43.77
2022-12-18T15:52:17.044Z,43.71
2022-12-18T15:55:05.401Z,43.75
2022-12-18T15:57:35.704Z,43.81
2022-12-18T16:00:06.912Z,43.83
2022-12-18T16:02:37.226Z,43.86
2022-12-18T16:05:13.642Z,43.83
2022-12-18T16:07:43.978Z,43.80
2022-12-18T16:10:14.556Z,43.78
2022-12-18T16:12:45.243Z,43.81
2022-12-18T16:15:22.423Z,43.88
2022-12-18T16:17:49.529Z,43.89
2022-12-18T16:20:22.209Z,43.86
2022-12-18T16:22:54.081Z,43.87
2022-12-18T16:25:29.570Z,43.90
2022-12-18T16:27:59.926Z,43.83
2022-12-18T16:30:38.360Z,44.17
2022-12-18T16:33:04.097Z,44.15
2022-12-18T16:35:34.625Z,44.72
2022-12-18T16:38:05.156Z,44.78
2022-12-18T16:40:37.407Z,44.69
2022-12-18T16:43:07.504Z,44.59
2022-12-18T16:45:37.632Z,44.54
2022-12-18T16:48:08.153Z,44.49
2022-12-18T16:50:38.311Z,44.46
2022-12-18T16:53:08.468Z,44.48
2022-12-18T16:55:38.704Z,44.50
2022-12-18T16:58:09.107Z,44.55
2022-12-18T17:00:41.350Z,44.56
2022-12-18T17:03:11.717Z,44.60
2022-12-18T17:05:42.627Z,44.63
2022-12-18T17:08:13.003Z,44.63
2022-12-18T17:10:43.372Z,44.69
2022-12-18T17:13:13.499Z,44.79
2022-12-18T17:15:43.697Z,44.82
2022-12-18T17:18:13.840Z,44.81
2022-12-18T17:20:44.009Z,44.79
2022-12-18T17:23:14.187Z,44.81
2022-12-18T17:25:44.423Z,44.88
2022-12-18T17:28:14.529Z,44.89
2022-12-18T17:30:44.780Z,44.92
2022-12-18T17:33:15.149Z,44.91
2022-12-18T17:35:46.545Z,44.96
2022-12-18T17:38:19.345Z,45.34
2022-12-18T17:40:49.477Z,45.57
2022-12-18T17:43:21.416Z,46.46
2022-12-18T17:45:53.300Z,44.32
2022-12-18T17:48:23.532Z,45.64
2022-12-18T17:50:54.647Z,46.20
2022-12-18T17:53:24.784Z,46.42
2022-12-18T17:56:01.078Z,46.45
2022-12-18T17:58:31.332Z,46.34
2022-12-18T18:01:02.029Z,46.25
2022-12-18T18:03:34.120Z,46.55
2022-12-18T18:06:04.564Z,46.84
2022-12-18T18:08:36.233Z,46.91
2022-12-18T18:11:26.809Z,46.89
2022-12-18T18:14:04.558Z,46.61
2022-12-18T18:16:40.569Z,46.04
2022-12-18T18:19:14.208Z,45.65
2022-12-18T18:21:47.114Z,45.15
2022-12-18T18:24:20.807Z,44.95
2022-12-18T18:26:51.780Z,44.41
2022-12-18T18:29:25.363Z,41.84
2022-12-18T18:31:57.413Z,38.11
2022-12-18T18:34:30.705Z,38.55
2022-12-18T18:37:02.291Z,38.51
2022-12-18T18:39:32.821Z,39.24
2022-12-18T18:42:03.118Z,39.91
2022-12-18T18:44:34.025Z,40.21
2022-12-18T18:47:06.306Z,43.15
2022-12-18T18:49:36.309Z,46.34
2022-12-18T18:52:07.539Z,47.28
2022-12-18T18:54:37.622Z,47.41
2022-12-18T18:57:20.527Z,47.12
2022-12-18T18:59:41.651Z,46.95
2022-12-18T19:02:14.889Z,46.66
2022-12-18T19:04:46.885Z,46.46
2022-12-18T19:07:29.981Z,45.94
2022-12-18T19:09:52.158Z,45.25
2022-12-18T19:12:40.488Z,44.69
2022-12-18T19:15:11.609Z,44.80
2022-12-18T19:17:44.779Z,44.99
2022-12-18T19:20:15.922Z,44.99
2022-12-18T19:22:54.898Z,45.12
2022-12-18T19:25:18.481Z,46.51
2022-12-18T19:27:49.060Z,46.57
2022-12-18T19:30:19.235Z,46.17
2022-12-18T19:32:49.391Z,45.62
2022-12-18T19:35:19.778Z,45.21
2022-12-18T19:37:50.374Z,45.63
2022-12-18T19:40:20.730Z,46.56
2022-12-18T19:42:51.157Z,47.34
2022-12-18T19:45:21.422Z,47.45
2022-12-18T19:47:53.421Z,46.82
2022-12-18T19:50:23.803Z,46.25
2022-12-18T19:52:54.723Z,45.92
2022-12-18T19:55:25.096Z,45.57
2022-12-18T19:57:55.477Z,45.50
2022-12-18T20:00:25.855Z,45.26
2022-12-18T20:03:02.437Z,45.17
2022-12-18T20:05:28.699Z,45.56
2022-12-18T20:07:59.559Z,45.62
2022-12-18T20:10:32.249Z,45.93
2022-12-18T20:13:02.532Z,45.98
2022-12-18T20:15:32.837Z,46.09
2022-12-18T20:18:03.120Z,47.14
2022-12-18T20:20:33.764Z,48.61
2022-12-18T20:23:05.112Z,50.23
2022-12-18T20:25:35.374Z,51.71
2022-12-18T20:28:06.135Z,53.24
2022-12-18T20:30:36.364Z,55.19
2022-12-18T20:33:06.686Z,50.29
2022-12-18T20:35:37.093Z,49.10
2022-12-18T20:38:07.248Z,54.10
2022-12-18T20:40:38.041Z,56.45
2022-12-18T20:43:12.431Z,57.09
2022-12-18T20:45:41.339Z,56.88
2022-12-18T20:48:13.886Z,56.83
2022-12-18T20:50:44.152Z,56.76
2022-12-18T20:53:14.255Z,56.93
2022-12-18T20:55:44.739Z,58.42
2022-12-18T20:58:14.983Z,57.23
2022-12-18T21:00:45.237Z,55.71
2022-12-18T21:03:15.532Z,54.38
2022-12-18T21:05:45.918Z,53.50
2022-12-18T21:08:16.261Z,52.88
2022-12-18T21:10:46.511Z,52.37
2022-12-18T21:13:17.037Z,51.93
2022-12-18T21:15:48.914Z,51.48
2022-12-18T21:18:19.142Z,51.37
2022-12-18T21:20:49.967Z,51.17
2022-12-18T21:23:20.431Z,50.95
2022-12-18T21:25:55.850Z,50.78
2022-12-18T21:28:27.147Z,50.53
2022-12-18T21:30:58.664Z,50.80
2022-12-18T21:33:29.066Z,51.02
2022-12-18T21:35:59.263Z,50.74
2022-12-18T21:38:29.569Z,50.53
2022-12-18T21:40:59.999Z,50.22
2022-12-18T21:43:48.169Z,50.34
2022-12-18T21:46:18.732Z,50.06
2022-12-18T21:48:49.046Z,49.80
2022-12-18T21:51:19.311Z,50.06
2022-12-18T21:53:49.576Z,49.92
2022-12-18T21:56:20.037Z,49.78
2022-12-18T21:58:56.684Z,49.72
2022-12-18T22:01:23.388Z,49.34
2022-12-18T22:03:53.536Z,48.98
2022-12-18T22:06:23.755Z,48.99
2022-12-18T22:08:53.925Z,49.05
2022-12-18T22:11:24.286Z,48.90
2022-12-18T22:13:54.397Z,48.56
2022-12-18T22:16:24.786Z,48.39
2022-12-18T22:18:56.097Z,48.18
2022-12-18T22:21:29.743Z,48.19
2022-12-18T22:24:06.183Z,48.18
2022-12-18T22:26:40.301Z,48.15
2022-12-18T22:29:39.682Z,48.20
2022-12-18T22:32:15.199Z,48.17
2022-12-18T22:34:45.734Z,48.24
2022-12-18T22:37:15.797Z,48.10
2022-12-18T22:39:46.019Z,48.10
2022-12-18T22:42:16.403Z,48.14
2022-12-18T22:44:46.420Z,48.01
2022-12-18T22:47:16.635Z,47.82
2022-12-18T22:49:46.813Z,47.76
2022-12-18T22:52:17.092Z,47.68
2022-12-18T22:54:48.927Z,47.92
2022-12-18T22:57:19.158Z,48.09
2022-12-18T22:59:49.428Z,47.73
2022-12-18T23:02:20.076Z,47.62
2022-12-18T23:04:50.423Z,47.61
2022-12-18T23:07:20.544Z,47.67
2022-12-18T23:10:00.664Z,47.67
2022-12-18T23:12:24.603Z,47.71
2022-12-18T23:14:54.972Z,47.63
2022-12-18T23:17:25.160Z,47.63
2022-12-18T23:19:55.368Z,47.89
2022-12-18T23:22:25.589Z,48.02
2022-12-18T23:24:55.699Z,48.12
2022-12-18T23:27:25.964Z,48.18
2022-12-18T23:29:56.215Z,48.19
2022-12-18T23:32:28.011Z,48.11
2022-12-18T23:34:58.223Z,47.88
2022-12-18T23:37:56.896Z,47.79
2022-12-18T23:40:00.309Z,47.68
2022-12-18T23:42:30.525Z,47.70
2022-12-18T23:45:00.748Z,47.66
2022-12-18T23:47:32.738Z,47.50
2022-12-18T23:50:03.168Z,47.49
2022-12-18T23:52:33.291Z,47.31
2022-12-18T23:55:03.515Z,47.32
2022-12-18T23:57:33.725Z,47.27
